createdAt,value
2023-04-21T00:00:30.871Z,229.24
2023-04-21T00:01:30.880Z,228.35
2023-04-21T00:02:30.984Z,229.34
2023-04-21T00:03:30.938Z,231.18
2023-04-21T00:04:30.896Z,219.65
2023-04-21T00:05:30.770Z,231.66
2023-04-21T00:06:30.685Z,225.45
2023-04-21T00:07:30.668Z,227.62
2023-04-21T00:08:30.612Z,226.81
2023-04-21T00:09:30.587Z,232.83
2023-04-21T00:10:30.558Z,230.39
2023-04-21T00:11:30.560Z,227.82
2023-04-21T00:12:30.501Z,225.93
2023-04-21T00:13:30.468Z,233.22
2023-04-21T00:14:30.427Z,224.14
2023-04-21T00:15:30.418Z,226.68
2023-04-21T00:16:30.531Z,231.49
2023-04-21T00:17:30.383Z,224.18
2023-04-21T00:18:30.303Z,233.33
2023-04-21T00:19:30.280Z,231.21
2023-04-21T00:20:30.244Z,238.80
2023-04-21T00:21:30.243Z,228.23
2023-04-21T00:22:30.193Z,228.39
2023-04-21T00:23:30.150Z,225.79
2023-04-21T00:24:30.114Z,230.53
2023-04-21T00:25:30.060Z,230.31
2023-04-21T00:26:30.040Z,231.25
2023-04-21T00:27:29.979Z,232.85
2023-04-21T00:28:29.945Z,228.79
2023-04-21T00:29:29.890Z,226.06
2023-04-21T00:30:29.844Z,229.71
2023-04-21T00:31:29.920Z,234.77
2023-04-21T00:32:29.800Z,232.53
2023-04-21T00:33:29.790Z,230.76
2023-04-21T00:34:29.701Z,231.94
2023-04-21T00:35:29.662Z,228.70
2023-04-21T00:36:29.634Z,233.55
2023-04-21T00:37:29.573Z,231.02
2023-04-21T00:38:29.548Z,230.56
2023-04-21T00:39:29.485Z,229.64
2023-04-21T00:40:29.479Z,231.72
2023-04-21T00:41:29.429Z,227.02
2023-04-21T00:42:29.366Z,231.65
2023-04-21T00:43:29.330Z,225.11
2023-04-21T00:44:29.296Z,227.22
2023-04-21T00:45:29.270Z,228.52
2023-04-21T00:46:29.334Z,228.68
2023-04-21T00:47:29.248Z,229.96
2023-04-21T00:48:29.161Z,231.48
2023-04-21T00:49:29.133Z,228.04
2023-04-21T00:50:29.094Z,227.82
2023-04-21T00:51:29.053Z,229.28
2023-04-21T00:52:28.998Z,229.31
2023-04-21T00:53:28.961Z,236.53
2023-04-21T00:54:28.923Z,233.74
2023-04-21T00:55:28.876Z,228.12
2023-04-21T00:56:28.845Z,228.44
2023-04-21T00:57:28.837Z,228.06
2023-04-21T00:58:28.763Z,230.13
2023-04-21T00:59:28.719Z,227.96
2023-04-21T01:00:28.738Z,231.52
2023-04-21T01:01:28.699Z,231.08
2023-04-21T01:02:28.780Z,230.06
2023-04-21T01:03:28.777Z,227.57
2023-04-21T01:04:28.521Z,231.62
2023-04-21T01:05:28.488Z,228.73
2023-04-21T01:06:28.464Z,233.77
2023-04-21T01:07:28.427Z,226.12
2023-04-21T01:08:28.386Z,226.73
2023-04-21T01:09:28.345Z,227.28
2023-04-21T01:10:28.314Z,234.01
2023-04-21T01:11:28.261Z,232.06
2023-04-21T01:12:28.228Z,236.86
2023-04-21T01:13:28.194Z,224.80
2023-04-21T01:14:28.147Z,229.87
2023-04-21T01:15:28.109Z,226.20
2023-04-21T01:16:28.115Z,229.70
2023-04-21T01:17:28.073Z,226.26
2023-04-21T01:18:27.988Z,232.27
2023-04-21T01:19:27.937Z,232.97
2023-04-21T01:20:27.903Z,222.80
2023-04-21T01:21:27.872Z,227.14
2023-04-21T01:22:27.841Z,228.89
2023-04-21T01:23:27.800Z,228.05
2023-04-21T01:24:27.772Z,227.15
2023-04-21T01:25:27.725Z,233.94
2023-04-21T01:26:27.724Z,226.47
2023-04-21T01:27:27.686Z,230.00
2023-04-21T01:28:27.702Z,223.08
2023-04-21T01:29:27.708Z,230.72
2023-04-21T01:30:27.705Z,235.28
2023-04-21T01:31:27.731Z,226.35
2023-04-21T01:32:27.802Z,232.08
2023-04-21T01:33:27.674Z,226.83
2023-04-21T01:34:27.655Z,223.55
2023-04-21T01:35:27.651Z,232.53
2023-04-21T01:36:27.641Z,228.87
2023-04-21T01:37:27.613Z,230.31
2023-04-21T01:38:27.573Z,225.53
2023-04-21T01:39:27.544Z,226.79
2023-04-21T01:40:27.494Z,228.16
2023-04-21T01:41:27.492Z,230.87
2023-04-21T01:42:27.439Z,229.11
2023-04-21T01:43:27.423Z,232.31
2023-04-21T01:44:27.385Z,229.33
2023-04-21T01:45:27.357Z,231.17
2023-04-21T01:46:27.389Z,233.69
2023-04-21T01:47:27.282Z,223.84
2023-04-21T01:48:27.265Z,229.63
2023-04-21T01:49:27.252Z,232.43
2023-04-21T01:50:27.241Z,231.56
2023-04-21T01:51:27.237Z,227.18
2023-04-21T01:52:27.226Z,226.72
2023-04-21T01:53:27.170Z,230.19
2023-04-21T01:54:27.124Z,232.45
2023-04-21T01:55:27.077Z,228.62
2023-04-21T01:56:27.096Z,222.01
2023-04-21T01:57:27.022Z,227.15
2023-04-21T01:58:26.982Z,230.89
2023-04-21T01:59:26.956Z,226.54
2023-04-21T02:00:26.906Z,232.61
2023-04-21T02:01:26.949Z,230.01
2023-04-21T02:02:26.949Z,235.22
2023-04-21T02:03:26.926Z,230.82
2023-04-21T02:04:26.860Z,234.73
2023-04-21T02:05:26.762Z,235.22
2023-04-21T02:06:26.760Z,228.72
2023-04-21T02:07:26.713Z,227.66
2023-04-21T02:08:26.698Z,234.99
2023-04-21T02:09:26.685Z,227.78
2023-04-21T02:10:26.667Z,227.24
2023-04-21T02:11:26.635Z,222.72
2023-04-21T02:12:26.616Z,225.37
2023-04-21T02:13:26.576Z,232.01
2023-04-21T02:14:26.570Z,232.26
2023-04-21T02:15:26.532Z,227.52
2023-04-21T02:16:26.584Z,228.70
2023-04-21T02:17:26.508Z,230.43
2023-04-21T02:18:26.500Z,230.24
2023-04-21T02:19:26.473Z,233.73
2023-04-21T02:20:26.491Z,229.34
2023-04-21T02:21:26.429Z,229.45
2023-04-21T02:22:26.400Z,229.29
2023-04-21T02:23:26.368Z,230.07
2023-04-21T02:24:26.359Z,232.47
2023-04-21T02:25:26.329Z,228.07
2023-04-21T02:26:26.288Z,226.81
2023-04-21T02:27:26.283Z,229.85
2023-04-21T02:28:26.229Z,234.33
2023-04-21T02:29:26.193Z,229.09
2023-04-21T02:30:26.170Z,230.19
2023-04-21T02:31:26.178Z,221.59
2023-04-21T02:32:26.402Z,224.91
2023-04-21T02:33:26.124Z,232.45
2023-04-21T02:34:26.048Z,227.77
2023-04-21T02:35:26.038Z,230.67
2023-04-21T02:36:26.001Z,227.13
2023-04-21T02:37:25.968Z,227.79
2023-04-21T02:38:25.939Z,228.93
2023-04-21T02:39:25.891Z,233.36
2023-04-21T02:40:25.871Z,228.40
2023-04-21T02:41:25.834Z,223.31
2023-04-21T02:42:25.806Z,227.65
2023-04-21T02:43:25.775Z,227.98
2023-04-21T02:44:25.739Z,228.02
2023-04-21T02:45:25.706Z,229.89
2023-04-21T02:46:25.738Z,225.47
2023-04-21T02:47:25.679Z,212.40
2023-04-21T02:48:25.606Z,211.58
2023-04-21T02:49:25.575Z,188.71
2023-04-21T02:50:25.546Z,170.12
2023-04-21T02:51:25.521Z,148.51
2023-04-21T02:52:25.469Z,142.02
2023-04-21T02:53:25.449Z,132.30
2023-04-21T02:54:25.430Z,105.41
2023-04-21T02:55:25.364Z,102.21
2023-04-21T02:56:25.347Z,79.85
2023-04-21T02:57:25.310Z,63.84
2023-04-21T02:58:25.303Z,53.39
2023-04-21T02:59:25.266Z,38.52
2023-04-21T03:00:25.236Z,25.00
2023-04-21T03:01:25.258Z,25.00
2023-04-21T03:02:25.316Z,25.00
2023-04-21T03:03:25.298Z,25.00
2023-04-21T03:04:25.324Z,25.00
2023-04-21T03:05:25.083Z,25.00
2023-04-21T03:06:25.061Z,25.22
2023-04-21T03:07:25.101Z,24.74
2023-04-21T03:08:25.121Z,26.99
2023-04-21T03:09:25.168Z,26.01
2023-04-21T03:10:25.249Z,24.84
2023-04-21T03:11:25.243Z,26.52
2023-04-21T03:12:25.273Z,25.80
2023-04-21T03:13:25.299Z,27.03
2023-04-21T03:14:25.329Z,25.00
2023-04-21T03:15:25.289Z,25.76
2023-04-21T03:16:25.332Z,25.00
2023-04-21T03:17:25.372Z,25.38
2023-04-21T03:18:25.392Z,24.90
2023-04-21T03:19:25.452Z,25.35
2023-04-21T03:20:25.491Z,25.25
2023-04-21T03:21:25.537Z,26.36
2023-04-21T03:22:25.592Z,25.95
2023-04-21T03:23:25.629Z,25.78
2023-04-21T03:24:25.746Z,25.12
2023-04-21T03:25:25.721Z,25.00
2023-04-21T03:26:25.805Z,26.03
2023-04-21T03:27:25.814Z,26.02
2023-04-21T03:28:25.818Z,25.14
2023-04-21T03:29:25.861Z,25.00
2023-04-21T03:30:25.904Z,25.69
2023-04-21T03:31:25.985Z,26.15
2023-04-21T03:32:26.019Z,25.00
2023-04-21T03:33:25.999Z,25.92
2023-04-21T03:34:26.026Z,26.19
2023-04-21T03:35:26.007Z,25.00
2023-04-21T03:36:26.073Z,25.00
2023-04-21T03:37:26.064Z,25.77
2023-04-21T03:38:26.048Z,25.90
2023-04-21T03:39:26.335Z,26.71
2023-04-21T03:40:26.006Z,25.78
2023-04-21T03:41:25.992Z,25.00
2023-04-21T03:42:25.990Z,25.00
2023-04-21T03:43:25.975Z,25.09
2023-04-21T03:44:25.949Z,24.38
2023-04-21T03:45:25.930Z,24.65
2023-04-21T03:46:25.970Z,24.95
2023-04-21T03:47:25.937Z,24.76
2023-04-21T03:48:25.877Z,27.06
2023-04-21T03:49:25.862Z,25.61
2023-04-21T03:50:25.855Z,25.00
2023-04-21T03:51:25.844Z,28.65
2023-04-21T03:52:25.827Z,29.76
2023-04-21T03:53:25.813Z,28.23
2023-04-21T03:54:25.844Z,28.59
2023-04-21T03:55:25.822Z,28.32
2023-04-21T03:56:25.837Z,27.27
2023-04-21T03:57:25.807Z,27.00
2023-04-21T03:58:25.807Z,28.59
2023-04-21T03:59:25.785Z,25.28
2023-04-21T04:00:25.788Z,25.75
2023-04-21T04:01:25.797Z,27.35
2023-04-21T04:02:25.864Z,27.30
2023-04-21T04:03:25.987Z,28.06
2023-04-21T04:04:26.060Z,29.08
2023-04-21T04:05:25.908Z,27.47
2023-04-21T04:06:25.801Z,26.72
2023-04-21T04:07:25.801Z,29.70
2023-04-21T04:08:25.813Z,28.81
2023-04-21T04:09:25.845Z,30.72
2023-04-21T04:10:25.873Z,27.41
2023-04-21T04:11:25.861Z,26.80
2023-04-21T04:12:25.836Z,25.49
2023-04-21T04:13:25.835Z,26.02
2023-04-21T04:14:25.870Z,26.21
2023-04-21T04:15:25.911Z,27.37
2023-04-21T04:16:25.919Z,26.92
2023-04-21T04:17:25.897Z,25.00
2023-04-21T04:18:25.894Z,25.78
2023-04-21T04:19:25.879Z,25.15
2023-04-21T04:20:25.885Z,26.35
2023-04-21T04:21:25.923Z,27.23
2023-04-21T04:22:25.917Z,28.19
2023-04-21T04:23:25.909Z,25.00
2023-04-21T04:24:25.948Z,27.25
2023-04-21T04:25:25.933Z,28.24
2023-04-21T04:26:25.964Z,26.81
2023-04-21T04:27:25.967Z,28.31
2023-04-21T04:28:25.980Z,27.84
2023-04-21T04:29:25.973Z,27.72
2023-04-21T04:30:25.995Z,29.26
2023-04-21T04:31:26.040Z,28.96
2023-04-21T04:32:26.045Z,30.10
2023-04-21T04:33:26.037Z,30.64
2023-04-21T04:34:26.034Z,33.07
2023-04-21T04:35:26.057Z,34.07
2023-04-21T04:36:26.080Z,36.72
2023-04-21T04:37:26.090Z,35.51
2023-04-21T04:38:26.094Z,36.23
2023-04-21T04:39:26.109Z,34.81
2023-04-21T04:40:26.167Z,35.74
2023-04-21T04:41:26.151Z,35.28
2023-04-21T04:42:26.170Z,37.29
2023-04-21T04:43:26.192Z,38.24
2023-04-21T04:44:26.198Z,37.94
2023-04-21T04:45:26.232Z,36.86
2023-04-21T04:46:26.241Z,36.90
2023-04-21T04:47:26.325Z,37.02
2023-04-21T04:48:26.160Z,36.93
2023-04-21T04:49:26.143Z,36.94
2023-04-21T04:50:26.121Z,37.52
2023-04-21T04:51:26.112Z,36.96
2023-04-21T04:52:26.089Z,37.08
2023-04-21T04:53:26.063Z,38.91
2023-04-21T04:54:26.049Z,40.76
2023-04-21T04:55:26.037Z,43.39
2023-04-21T04:56:25.992Z,44.87
2023-04-21T04:57:25.993Z,44.76
2023-04-21T04:58:25.966Z,43.83
2023-04-21T04:59:26.301Z,45.29
2023-04-21T05:00:25.916Z,46.01
2023-04-21T05:01:25.955Z,46.10
2023-04-21T05:02:26.064Z,47.54
2023-04-21T05:03:26.025Z,47.47
2023-04-21T05:04:26.129Z,47.32
2023-04-21T05:05:25.852Z,47.55
2023-04-21T05:06:25.849Z,47.14
2023-04-21T05:07:25.897Z,48.33
2023-04-21T05:08:25.881Z,50.53
2023-04-21T05:09:25.942Z,49.94
2023-04-21T05:10:25.944Z,51.09
2023-04-21T05:11:26.007Z,50.61
2023-04-21T05:12:26.011Z,53.80
2023-04-21T05:13:26.038Z,54.50
2023-04-21T05:14:26.046Z,53.35
2023-04-21T05:15:26.087Z,57.72
2023-04-21T05:16:26.112Z,57.80
2023-04-21T05:17:26.084Z,58.43
2023-04-21T05:18:26.008Z,59.75
2023-04-21T05:19:25.997Z,63.56
2023-04-21T05:20:25.956Z,71.73
2023-04-21T05:21:25.961Z,72.83
2023-04-21T05:22:25.933Z,73.86
2023-04-21T05:23:25.903Z,76.28
2023-04-21T05:24:25.862Z,78.32
2023-04-21T05:25:25.861Z,78.17
2023-04-21T05:26:25.832Z,80.10
2023-04-21T05:27:25.798Z,83.66
2023-04-21T05:28:25.820Z,85.99
2023-04-21T05:29:25.820Z,87.11
2023-04-21T05:30:25.850Z,85.12
2023-04-21T05:31:25.953Z,86.53
2023-04-21T05:32:26.071Z,94.76
2023-04-21T05:33:25.946Z,105.13
2023-04-21T05:34:25.986Z,117.21
2023-04-21T05:35:25.980Z,130.76
2023-04-21T05:36:25.994Z,142.34
2023-04-21T05:37:26.000Z,152.88
2023-04-21T05:38:26.019Z,165.35
2023-04-21T05:39:26.079Z,173.77
2023-04-21T05:40:26.150Z,182.48
2023-04-21T05:41:26.208Z,191.33
2023-04-21T05:42:26.303Z,200.05
2023-04-21T05:43:26.364Z,206.72
2023-04-21T05:44:26.430Z,214.29
2023-04-21T05:45:26.355Z,214.59
2023-04-21T05:46:26.411Z,216.64
2023-04-21T05:47:26.379Z,221.74
2023-04-21T05:48:26.226Z,233.70
2023-04-21T05:49:26.205Z,248.79
2023-04-21T05:50:26.168Z,249.11
2023-04-21T05:51:26.160Z,248.20
2023-04-21T05:52:26.189Z,250.00
2023-04-21T05:53:26.097Z,250.11
2023-04-21T05:54:26.335Z,249.61
2023-04-21T05:55:26.217Z,249.87
2023-04-21T05:56:26.092Z,250.00
2023-04-21T05:57:26.164Z,249.88
2023-04-21T05:58:26.081Z,250.00
2023-04-21T05:59:26.129Z,250.00
2023-04-21T06:00:26.086Z,249.65
2023-04-21T06:01:26.063Z,250.00
2023-04-21T06:02:26.206Z,250.59
2023-04-21T06:03:26.138Z,249.99
2023-04-21T06:04:26.502Z,249.94
2023-04-21T06:05:25.998Z,249.75
2023-04-21T06:06:26.016Z,246.32
2023-04-21T06:07:26.041Z,250.00
2023-04-21T06:08:25.917Z,250.00
2023-04-21T06:09:25.909Z,249.73
2023-04-21T06:10:25.872Z,245.10
2023-04-21T06:11:25.865Z,248.43
2023-04-21T06:12:25.909Z,246.61
2023-04-21T06:13:25.849Z,247.91
2023-04-21T06:14:25.873Z,246.46
2023-04-21T06:15:25.857Z,246.72
2023-04-21T06:16:25.889Z,247.29
2023-04-21T06:17:25.898Z,248.27
2023-04-21T06:18:25.751Z,248.90
2023-04-21T06:19:25.723Z,253.27
2023-04-21T06:20:25.782Z,249.96
2023-04-21T06:21:25.635Z,249.17
2023-04-21T06:22:25.682Z,247.07
2023-04-21T06:23:25.586Z,248.06
2023-04-21T06:24:25.782Z,249.75
2023-04-21T06:25:25.605Z,246.26
2023-04-21T06:26:25.751Z,246.28
2023-04-21T06:27:25.644Z,250.00
2023-04-21T06:28:25.622Z,248.66
2023-04-21T06:29:25.624Z,245.52
2023-04-21T06:30:25.631Z,249.61
2023-04-21T06:31:25.653Z,253.38
2023-04-21T06:32:25.637Z,248.63
2023-04-21T06:33:25.649Z,250.86
2023-04-21T06:34:25.599Z,248.82
2023-04-21T06:35:25.598Z,249.90
2023-04-21T06:36:25.607Z,246.68
2023-04-21T06:37:25.607Z,247.30
2023-04-21T06:38:25.585Z,244.80
2023-04-21T06:39:25.590Z,244.41
2023-04-21T06:40:25.605Z,244.51
2023-04-21T06:41:25.568Z,247.84
2023-04-21T06:42:25.570Z,249.78
2023-04-21T06:43:25.544Z,249.81
2023-04-21T06:44:25.538Z,249.84
2023-04-21T06:45:25.474Z,249.00
2023-04-21T06:46:25.469Z,247.25
2023-04-21T06:47:25.782Z,247.02
2023-04-21T06:48:25.338Z,242.94
2023-04-21T06:49:25.272Z,243.87
2023-04-21T06:50:25.249Z,245.66
2023-04-21T06:51:25.192Z,240.80
2023-04-21T06:52:25.159Z,240.73
2023-04-21T06:53:25.094Z,237.11
2023-04-21T06:54:25.063Z,242.17
2023-04-21T06:55:25.025Z,244.16
2023-04-21T06:56:24.946Z,242.49
2023-04-21T06:57:24.923Z,245.77
2023-04-21T06:58:24.888Z,247.15
2023-04-21T06:59:24.851Z,247.23
2023-04-21T07:00:24.775Z,247.40
2023-04-21T07:01:24.774Z,248.28
2023-04-21T07:02:24.792Z,249.95
2023-04-21T07:03:24.795Z,252.67
2023-04-21T07:04:24.654Z,246.22
2023-04-21T07:05:24.586Z,246.18
2023-04-21T07:06:24.499Z,245.25
2023-04-21T07:07:24.481Z,241.82
2023-04-21T07:08:24.440Z,239.33
2023-04-21T07:09:24.385Z,238.84
2023-04-21T07:10:24.441Z,238.26
2023-04-21T07:11:24.369Z,233.36
2023-04-21T07:12:24.281Z,229.61
2023-04-21T07:13:24.206Z,227.68
2023-04-21T07:14:24.173Z,223.68
2023-04-21T07:15:24.106Z,220.63
2023-04-21T07:16:24.086Z,219.76
2023-04-21T07:17:24.074Z,215.84
2023-04-21T07:18:23.979Z,212.36
2023-04-21T07:19:23.967Z,208.34
2023-04-21T07:20:23.876Z,203.12
2023-04-21T07:21:23.922Z,201.06
2023-04-21T07:22:23.819Z,200.79
2023-04-21T07:23:23.941Z,199.56
2023-04-21T07:24:23.860Z,191.01
2023-04-21T07:25:23.775Z,189.97
2023-04-21T07:26:23.780Z,188.95
2023-04-21T07:27:23.754Z,185.67
2023-04-21T07:28:23.783Z,186.77
2023-04-21T07:29:23.763Z,188.26
2023-04-21T07:30:23.743Z,186.24
2023-04-21T07:31:23.761Z,183.32
2023-04-21T07:32:23.773Z,180.82
2023-04-21T07:33:23.686Z,180.12
2023-04-21T07:34:23.765Z,176.23
2023-04-21T07:35:23.661Z,174.48
2023-04-21T07:36:23.658Z,175.02
2023-04-21T07:37:24.594Z,156.76
2023-04-21T07:38:23.758Z,130.06
2023-04-21T07:39:23.658Z,119.62
2023-04-21T07:40:23.659Z,99.10
2023-04-21T07:41:23.667Z,92.47
2023-04-21T07:42:23.665Z,92.60
2023-04-21T07:43:23.672Z,92.43
2023-04-21T07:44:23.652Z,93.75
2023-04-21T07:45:23.646Z,87.33
2023-04-21T07:46:23.677Z,81.01
2023-04-21T07:47:23.803Z,73.01
2023-04-21T07:48:23.706Z,71.79
2023-04-21T07:49:23.926Z,65.73
2023-04-21T07:50:23.705Z,59.16
2023-04-21T07:51:23.727Z,57.77
2023-04-21T07:52:23.771Z,65.31
2023-04-21T07:53:23.813Z,68.24
2023-04-21T07:54:23.820Z,72.54
2023-04-21T07:55:23.825Z,78.38
2023-04-21T07:56:23.872Z,79.26
2023-04-21T07:57:23.803Z,79.36
2023-04-21T07:58:23.853Z,79.72
2023-04-21T07:59:23.758Z,80.66
2023-04-21T08:00:23.772Z,84.55
2023-04-21T08:01:23.664Z,88.52
2023-04-21T08:02:23.829Z,92.87
2023-04-21T08:03:24.603Z,99.41
2023-04-21T08:04:23.911Z,101.66
2023-04-21T08:05:23.597Z,106.86
2023-04-21T08:06:23.842Z,110.70
2023-04-21T08:07:23.491Z,113.44
2023-04-21T08:08:23.563Z,117.37
2023-04-21T08:09:23.481Z,121.95
2023-04-21T08:10:23.365Z,122.21
2023-04-21T08:11:23.286Z,125.44
2023-04-21T08:12:23.286Z,125.11
2023-04-21T08:13:23.281Z,125.40
2023-04-21T08:14:23.292Z,128.14
2023-04-21T08:15:23.246Z,132.03
2023-04-21T08:16:23.266Z,133.36
2023-04-21T08:17:23.209Z,131.91
2023-04-21T08:18:23.371Z,132.75
2023-04-21T08:19:23.165Z,133.76
2023-04-21T08:20:23.208Z,119.13
2023-04-21T08:21:23.114Z,103.19
2023-04-21T08:22:23.189Z,99.07
2023-04-21T08:23:23.265Z,97.76
2023-04-21T08:24:23.369Z,98.30
2023-04-21T08:25:23.145Z,101.84
2023-04-21T08:26:23.086Z,102.03
2023-04-21T08:27:23.072Z,102.59
2023-04-21T08:28:23.049Z,105.47
2023-04-21T08:29:22.970Z,102.30
2023-04-21T08:30:22.978Z,103.97
2023-04-21T08:31:22.972Z,106.87
2023-04-21T08:32:22.859Z,112.51
2023-04-21T08:33:22.994Z,117.83
2023-04-21T08:34:25.739Z,120.02
2023-04-21T08:35:22.744Z,120.17
2023-04-21T08:36:29.417Z,120.87
2023-04-21T08:37:23.652Z,120.16
2023-04-21T08:38:22.676Z,120.49
2023-04-21T08:39:22.712Z,120.07
2023-04-21T08:40:22.553Z,120.90
2023-04-21T08:41:22.487Z,120.11
2023-04-21T08:42:22.453Z,119.88
2023-04-21T08:43:22.405Z,118.63
2023-04-21T08:44:22.434Z,116.94
2023-04-21T08:45:22.535Z,114.41
2023-04-21T08:46:22.456Z,113.67
2023-04-21T08:47:22.312Z,108.28
2023-04-21T08:48:22.228Z,109.73
2023-04-21T08:49:22.352Z,108.31
2023-04-21T08:50:22.263Z,104.46
2023-04-21T08:51:22.185Z,99.66
2023-04-21T08:52:22.167Z,98.09
2023-04-21T08:53:22.043Z,97.32
2023-04-21T08:54:22.001Z,92.63
2023-04-21T08:55:21.986Z,89.65
2023-04-21T08:56:21.997Z,90.36
2023-04-21T08:57:22.049Z,83.81
2023-04-21T08:58:22.011Z,80.65
2023-04-21T08:59:22.160Z,78.97
2023-04-21T09:00:22.026Z,79.81
2023-04-21T09:01:22.103Z,81.10
2023-04-21T09:02:22.225Z,79.10
2023-04-21T09:03:25.879Z,78.23
2023-04-21T09:04:22.095Z,79.11
2023-04-21T09:05:22.196Z,79.42
2023-04-21T09:06:22.300Z,76.76
2023-04-21T09:07:21.872Z,78.43
2023-04-21T09:08:21.839Z,78.64
2023-04-21T09:09:22.104Z,80.84
2023-04-21T09:10:21.791Z,78.78
2023-04-21T09:11:21.773Z,78.93
2023-04-21T09:12:21.752Z,81.19
2023-04-21T09:13:21.663Z,79.41
2023-04-21T09:14:21.677Z,78.75
2023-04-21T09:15:21.573Z,81.00
2023-04-21T09:16:22.219Z,81.87
2023-04-21T09:17:21.555Z,80.26
2023-04-21T09:18:21.453Z,80.87
2023-04-21T09:19:21.639Z,81.45
2023-04-21T09:20:21.422Z,83.53
2023-04-21T09:21:21.409Z,84.19
2023-04-21T09:22:21.445Z,81.61
2023-04-21T09:23:21.430Z,78.49
2023-04-21T09:24:21.470Z,80.59
2023-04-21T09:25:21.451Z,80.68
2023-04-21T09:26:21.413Z,80.40
2023-04-21T09:27:21.344Z,78.34
2023-04-21T09:28:21.306Z,80.61
2023-04-21T09:29:21.426Z,78.72
2023-04-21T09:30:21.289Z,78.11
2023-04-21T09:31:21.220Z,80.37
2023-04-21T09:32:21.206Z,80.09
2023-04-21T09:33:29.531Z,80.34
2023-04-21T09:34:22.107Z,79.79
2023-04-21T09:35:21.022Z,80.60
2023-04-21T09:36:20.988Z,80.90
2023-04-21T09:37:20.988Z,82.28
2023-04-21T09:38:20.901Z,80.56
2023-04-21T09:39:38.194Z,81.34
2023-04-21T09:40:21.806Z,80.51
2023-04-21T09:41:20.760Z,80.93
2023-04-21T09:42:20.727Z,82.78
2023-04-21T09:43:20.683Z,64.06
2023-04-21T09:44:21.304Z,39.39
2023-04-21T09:46:20.607Z,20.88
2023-04-21T09:47:20.589Z,25.00
2023-04-21T09:48:22.414Z,23.08
2023-04-21T09:49:20.502Z,17.12
2023-04-21T09:50:35.802Z,9.31
2023-04-21T09:51:32.724Z,6.53
2023-04-21T09:52:21.534Z,0.02
2023-04-21T09:53:20.444Z,0.00
2023-04-21T09:54:29.158Z,0.00
2023-04-21T09:55:21.386Z,0.00
2023-04-21T09:56:20.370Z,0.00
2023-04-21T09:57:20.351Z,10.75
2023-04-21T09:58:20.317Z,23.18
2023-04-21T09:59:21.733Z,25.18
2023-04-21T10:00:20.359Z,31.46
2023-04-21T10:01:20.312Z,43.60
2023-04-21T10:02:20.447Z,63.49
2023-04-21T10:03:20.352Z,78.74
2023-04-21T10:04:20.744Z,103.30
2023-04-21T10:05:20.187Z,120.79
2023-04-21T10:06:20.129Z,130.06
2023-04-21T10:07:20.110Z,132.37
2023-04-21T10:08:20.041Z,142.28
2023-04-21T10:09:20.005Z,148.41
2023-04-21T10:10:19.952Z,148.67
2023-04-21T10:11:19.920Z,150.82
2023-04-21T10:12:19.892Z,155.95
2023-04-21T10:13:19.825Z,163.93
2023-04-21T10:14:20.111Z,166.11
2023-04-21T10:15:19.799Z,166.72
2023-04-21T10:16:19.755Z,167.67
2023-04-21T10:17:19.783Z,163.49
2023-04-21T10:18:19.631Z,156.07
2023-04-21T10:19:19.777Z,149.37
2023-04-21T10:20:19.554Z,142.21
2023-04-21T10:21:19.544Z,142.03
2023-04-21T10:22:21.885Z,138.30
2023-04-21T10:23:19.447Z,140.49
2023-04-21T10:24:19.617Z,136.10
2023-04-21T10:25:19.327Z,136.77
2023-04-21T10:26:19.263Z,136.92
2023-04-21T10:27:19.240Z,133.83
2023-04-21T10:28:19.204Z,127.17
2023-04-21T10:29:19.348Z,124.27
2023-04-21T10:30:19.107Z,118.41
2023-04-21T10:31:19.208Z,115.44
2023-04-21T10:32:19.072Z,115.14
2023-04-21T10:33:18.993Z,114.56
2023-04-21T10:34:19.229Z,117.67
2023-04-21T10:35:18.885Z,120.78
2023-04-21T10:36:18.902Z,120.92
2023-04-21T10:37:18.820Z,122.35
2023-04-21T10:38:18.763Z,126.22
2023-04-21T10:39:19.327Z,128.36
2023-04-21T10:40:18.677Z,122.82
2023-04-21T10:41:18.662Z,110.10
2023-04-21T10:42:18.667Z,105.91
2023-04-21T10:43:18.556Z,94.49
2023-04-21T10:44:18.901Z,95.49
2023-04-21T10:45:18.500Z,96.18
2023-04-21T10:46:18.700Z,91.74
2023-04-21T10:47:18.587Z,90.50
2023-04-21T10:48:18.490Z,87.88
2023-04-21T10:49:18.381Z,89.56
2023-04-21T10:50:18.324Z,88.42
2023-04-21T10:51:18.297Z,83.40
2023-04-21T10:52:18.237Z,81.52
2023-04-21T10:53:18.206Z,83.29
2023-04-21T10:54:18.586Z,83.33
2023-04-21T10:55:18.155Z,83.59
2023-04-21T10:56:18.119Z,83.94
2023-04-21T10:57:18.071Z,84.26
2023-04-21T10:58:18.035Z,87.31
2023-04-21T10:59:17.986Z,83.33
2023-04-21T11:00:17.943Z,85.05
2023-04-21T11:01:17.922Z,84.66
2023-04-21T11:02:18.079Z,85.34
2023-04-21T11:03:18.066Z,87.21
2023-04-21T11:04:18.117Z,86.24
2023-04-21T11:05:17.803Z,84.99
2023-04-21T11:06:17.693Z,87.55
2023-04-21T11:07:17.659Z,87.97
2023-04-21T11:08:17.623Z,90.54
2023-04-21T11:09:17.577Z,96.22
2023-04-21T11:10:17.486Z,88.29
2023-04-21T11:11:17.435Z,90.27
2023-04-21T11:12:17.397Z,91.71
2023-04-21T11:13:17.463Z,95.48
2023-04-21T11:14:17.507Z,102.69
2023-04-21T11:15:17.297Z,103.23
2023-04-21T11:16:17.225Z,103.27
2023-04-21T11:17:17.215Z,102.61
2023-04-21T11:18:17.168Z,98.10
2023-04-21T11:19:17.093Z,98.35
2023-04-21T11:20:17.040Z,98.71
2023-04-21T11:21:17.041Z,94.91
2023-04-21T11:22:16.949Z,95.09
2023-04-21T11:23:16.963Z,97.21
2023-04-21T11:24:16.938Z,100.49
2023-04-21T11:25:16.817Z,100.27
2023-04-21T11:26:16.808Z,100.15
2023-04-21T11:27:16.766Z,101.87
2023-04-21T11:28:16.775Z,101.90
2023-04-21T11:29:16.641Z,102.02
2023-04-21T11:30:16.624Z,102.96
2023-04-21T11:31:16.622Z,104.33
2023-04-21T11:32:16.614Z,106.66
2023-04-21T11:33:16.561Z,105.68
2023-04-21T11:34:16.414Z,106.68
2023-04-21T11:35:16.350Z,107.27
2023-04-21T11:36:16.346Z,107.58
2023-04-21T11:37:16.282Z,106.43
2023-04-21T11:38:16.236Z,107.12
2023-04-21T11:39:16.203Z,106.98
2023-04-21T11:40:16.199Z,108.33
2023-04-21T11:41:16.205Z,109.22
2023-04-21T11:42:16.379Z,109.01
2023-04-21T11:43:16.208Z,108.54
2023-04-21T11:44:16.171Z,109.02
2023-04-21T11:45:16.183Z,110.33
2023-04-21T11:46:16.186Z,110.78
2023-04-21T11:47:16.127Z,111.61
2023-04-21T11:48:16.180Z,113.10
2023-04-21T11:49:16.113Z,113.31
2023-04-21T11:50:16.110Z,114.71
2023-04-21T11:51:16.099Z,114.72
2023-04-21T11:52:16.073Z,120.24
2023-04-21T11:53:16.073Z,125.81
2023-04-21T11:54:16.041Z,129.99
2023-04-21T11:55:16.038Z,132.76
2023-04-21T11:56:16.048Z,134.64
2023-04-21T11:57:16.007Z,137.32
2023-04-21T11:58:15.996Z,139.01
2023-04-21T11:59:15.959Z,140.12
2023-04-21T12:00:16.040Z,141.81
2023-04-21T12:01:15.914Z,141.22
2023-04-21T12:02:15.974Z,145.56
2023-04-21T12:03:16.058Z,144.31
2023-04-21T12:04:15.971Z,147.70
2023-04-21T12:05:15.828Z,146.53
2023-04-21T12:06:15.953Z,150.13
2023-04-21T12:07:15.805Z,155.16
2023-04-21T12:08:15.807Z,157.80
2023-04-21T12:09:15.764Z,159.08
2023-04-21T12:10:15.723Z,160.25
2023-04-21T12:11:15.732Z,161.72
2023-04-21T12:12:15.673Z,162.14
2023-04-21T12:13:17.758Z,162.81
2023-04-21T12:14:15.745Z,164.12
2023-04-21T12:15:15.687Z,164.48
2023-04-21T12:16:15.687Z,165.39
2023-04-21T12:17:15.644Z,164.20
2023-04-21T12:18:15.730Z,165.95
2023-04-21T12:19:15.614Z,166.57
2023-04-21T12:20:15.585Z,166.87
2023-04-21T12:21:15.516Z,166.16
2023-04-21T12:22:15.529Z,167.50
2023-04-21T12:23:15.500Z,167.48
2023-04-21T12:24:15.547Z,170.01
2023-04-21T12:25:15.487Z,170.24
2023-04-21T12:26:15.466Z,170.16
2023-04-21T12:27:15.428Z,170.52
2023-04-21T12:28:15.361Z,169.47
2023-04-21T12:29:15.333Z,171.72
2023-04-21T12:30:15.397Z,172.54
2023-04-21T12:31:15.439Z,170.53
2023-04-21T12:32:15.388Z,168.31
2023-04-21T12:33:15.478Z,167.55
2023-04-21T12:34:15.342Z,170.56
2023-04-21T12:35:15.216Z,170.90
2023-04-21T12:36:15.167Z,171.83
2023-04-21T12:37:15.118Z,171.08
2023-04-21T12:38:15.084Z,171.85